Pagrindinis puslapis
METAR-TAF:

METAR-TAF

Oro uostai :

Princesės Julianos tarptautinis oro uostas

Sint Martenas, Nyderlandų Antilai

platuma: 18-03N, ilguma: 063-07W, Aukštis: 4 m

Dabartinis oras

Ataskaita buvo paskelbta 49 minutes, ne 13:00 UTC
Vėjas 10 kt iš Rytų/Šiaurės Rytų
Temperatūra 29°C
Drėgmė 70%
Slėgis 1018 hPa
Matomumas 10 km arba daugiau
Išsisklaidę debesys ne aukštis 1600 ft

METAR: TNCM 071300Z 06010KT 9999 SCT016 29/23 Q1018 NOSIG

Laikas: 09:49 (13:49 UTC)

Prognozė

Ataskaita buvo paskelbta 2 valandos ir 25 minutes, ne 11:24 UTC
Prognozė galioja nuo 07 metu 12 UTC su 08 metu 12 UTC
Vėjas 12 kt iš Rytų
Matomumas: 10 km
Išsisklaidę debesys ne aukštis 1800 ft
Liūtis kaimynystėje
Nuo 07 metu 1800 UTC
Vėjas 12 kt iš Rytų
Matomumas: 10 km
Mažai debesys ne aukštis 1800 ft

TAF: TNCM 071124Z 0712/0812 08012KT P6SM VCSH SCT018 FM071800 08012KT P6SM FEW018

Orai ataskaitas ir orų prognozės (METAR, TAF).

turimą stotys yra geltonos ir raudonos taškus žemėlapyje.

Perkelti pele per norėdami pamatyti stoties vardą.

Tada spustelėkite, norėdami matyti oro stebėjimo ir prognozės.

Norėdami pakeisti žemėlapį: spustelėkite ant žalios mygtukų su juodo kryžiaus žemyn,; žalią mygtuką su brūkšneliu, jei norite nutolinti; arba žalių rodyklių gretimoms žemėlapius.


METAR-TAF: